Time;durP1;ratioP1;P1;durP2;ratioP2;P2;SDS_P1;SDS_P2;PMS_P1;PMS_P2;Temp;Humidity;BMP_temperature;BMP_pressure;BME280_temperature;BME280_humidity;BME280_pressure;Samples;Min_cycle;Max_cycle;Signal;HPM_P1;HPM_P2
2021/12/17 00:00:17;;;;;;;13.30;8.65;;;4.70;99.90;;;;;;5115854;28;20134;-85
2021/12/17 00:05:52;;;;;;;18.15;10.32;;;4.40;99.90;;;;;;5115843;28;20564;-85
2021/12/17 00:08:21;;;;;;;18.73;9.48;;;4.30;99.90;;;;;;5097227;28;20051;-85
2021/12/17 00:10:50;;;;;;;16.83;9.68;;;4.30;99.90;;;;;;5098015;28;20414;-85
2021/12/17 00:13:18;;;;;;;21.95;10.27;;;4.20;99.90;;;;;;5097726;28;20040;-85
2021/12/17 00:15:46;;;;;;;20.40;10.20;;;4.20;99.90;;;;;;5097874;28;20047;-85
2021/12/17 00:18:22;;;;;;;16.27;9.48;;;4.10;99.90;;;;;;5097739;28;20101;-85
2021/12/17 00:40:28;;;;;;;12.98;8.23;;;3.50;99.90;;;;;;5115336;28;20044;-85
2021/12/17 00:48:36;;;;;;;20.95;9.30;;;3.30;99.90;;;;;;5115065;28;20047;-86
2021/12/17 00:51:55;;;;;;;18.95;8.90;;;3.20;99.90;;;;;;5098018;28;20085;-85
2021/12/17 00:54:33;;;;;;;13.43;8.25;;;3.00;99.90;;;;;;5125707;28;20047;-85
2021/12/17 00:57:07;;;;;;;19.50;9.55;;;3.00;99.90;;;;;;5115075;28;20086;-85
2021/12/17 00:59:35;;;;;;;17.70;9.75;;;3.00;99.90;;;;;;5097101;28;20043;-85
2021/12/17 01:02:06;;;;;;;18.50;9.57;;;3.00;99.90;;;;;;5114407;28;20051;-85
2021/12/17 01:04:36;;;;;;;16.55;9.23;;;3.00;99.90;;;;;;5115994;28;20055;-86
2021/12/17 01:07:04;;;;;;;13.57;8.13;;;3.00;99.90;;;;;;5114938;28;20052;-85
2021/12/17 01:09:32;;;;;;;13.27;6.97;;;2.90;99.90;;;;;;5114876;28;20585;-86
2021/12/17 01:11:59;;;;;;;11.20;6.95;;;2.80;99.90;;;;;;5096693;28;20048;-86
2021/12/17 01:14:28;;;;;;;12.98;6.97;;;2.70;99.90;;;;;;5114367;28;20479;-86
2021/12/17 01:16:56;;;;;;;13.70;7.65;;;2.60;99.90;;;;;;5096529;28;20051;-86
2021/12/17 01:19:44;;;;;;;11.48;6.47;;;2.50;99.90;;;;;;5096077;28;20048;-86
2021/12/17 01:22:42;;;;;;;12.02;7.50;;;2.40;99.90;;;;;;5114611;28;20125;-86
2021/12/17 01:25:08;;;;;;;12.45;7.43;;;2.30;99.90;;;;;;5114135;28;20414;-86
2021/12/17 01:35:53;;;;;;;27.55;9.40;;;2.40;99.90;;;;;;5114073;28;20509;-86
2021/12/17 01:41:45;;;;;;;17.42;9.48;;;2.50;99.90;;;;;;5113938;28;20055;-86
2021/12/17 01:44:05;;;;;;;20.40;9.70;;;2.50;99.90;;;;;;5113813;28;20127;-85
2021/12/17 01:46:34;;;;;;;24.75;10.65;;;2.50;99.90;;;;;;5095826;28;20411;-86
2021/12/17 01:49:24;;;;;;;23.42;11.35;;;2.60;99.90;;;;;;5113710;28;20040;-87
2021/12/17 02:00:18;;;;;;;38.30;13.40;;;2.90;99.90;;;;;;5113734;28;20047;-86
2021/12/17 02:02:53;;;;;;;30.23;12.65;;;2.90;99.90;;;;;;5113520;28;20137;-86
2021/12/17 02:05:20;;;;;;;28.75;12.32;;;3.00;99.90;;;;;;5096000;28;20146;-86
2021/12/17 02:07:50;;;;;;;28.50;12.25;;;3.00;99.90;;;;;;5125978;28;20032;-85
2021/12/17 02:11:06;;;;;;;27.13;12.15;;;3.00;99.90;;;;;;5103925;28;20131;-86
2021/12/17 02:32:19;;;;;;;27.30;12.88;;;3.30;99.90;;;;;;5117461;28;20059;-86
2021/12/17 02:37:33;;;;;;;48.55;15.10;;;3.40;99.90;;;;;;5117570;28;20467;-86
2021/12/17 02:45:34;;;;;;;26.48;12.38;;;3.40;99.90;;;;;;5117486;28;20050;-86
2021/12/17 02:48:04;;;;;;;27.83;12.73;;;3.50;99.90;;;;;;5117649;28;20048;-86
2021/12/17 02:50:37;;;;;;;34.45;13.25;;;3.50;99.90;;;;;;5117244;28;20043;-86
2021/12/17 02:53:09;;;;;;;33.95;12.13;;;3.50;99.90;;;;;;5099471;28;20480;-86
2021/12/17 02:55:40;;;;;;;34.10;12.60;;;3.40;99.90;;;;;;5117306;28;20051;-86
2021/12/17 02:58:07;;;;;;;21.73;11.60;;;3.40;99.90;;;;;;5098959;28;20059;-86
2021/12/17 03:00:36;;;;;;;31.83;12.15;;;3.30;99.90;;;;;;5099122;28;20079;-86
2021/12/17 03:03:05;;;;;;;30.67;12.73;;;3.40;99.90;;;;;;5116791;28;20135;-85
2021/12/17 03:05:33;;;;;;;49.65;14.43;;;3.40;99.90;;;;;;5098731;28;20047;-86
2021/12/17 03:08:01;;;;;;;25.95;11.38;;;3.40;99.90;;;;;;5099360;28;20086;-86
2021/12/17 03:10:28;;;;;;;20.80;11.18;;;3.40;99.90;;;;;;5099162;28;20415;-86
2021/12/17 03:13:00;;;;;;;24.27;11.45;;;3.50;99.90;;;;;;5116978;28;20050;-86
2021/12/17 03:26:23;;;;;;;20.88;11.18;;;3.30;99.90;;;;;;5095546;28;20046;-86
2021/12/17 03:28:53;;;;;;;22.23;10.98;;;3.30;99.90;;;;;;5116495;28;20051;-86
2021/12/17 03:31:22;;;;;;;36.42;11.75;;;3.30;99.90;;;;;;5095049;28;20067;-86
2021/12/17 03:33:52;;;;;;;23.23;11.48;;;3.30;99.90;;;;;;5095080;28;20083;-87
2021/12/17 03:36:20;;;;;;;22.35;10.05;;;3.30;99.90;;;;;;5095891;28;20083;-86
2021/12/17 03:38:49;;;;;;;25.38;11.15;;;3.20;99.90;;;;;;5094769;28;20056;-86
2021/12/17 03:41:24;;;;;;;36.10;12.20;;;3.20;99.90;;;;;;5095665;28;20139;-86
2021/12/17 03:43:56;;;;;;;63.10;12.18;;;3.20;99.90;;;;;;5095238;28;20506;-86
2021/12/17 03:46:23;;;;;;;18.58;10.25;;;3.20;99.90;;;;;;5094962;28;20412;-85
2021/12/17 03:48:50;;;;;;;22.48;10.40;;;3.20;99.90;;;;;;5094804;28;20040;-87
2021/12/17 03:51:19;;;;;;;19.67;9.88;;;3.30;99.90;;;;;;5094387;28;20044;-86
2021/12/17 03:53:55;;;;;;;41.58;10.75;;;3.30;99.90;;;;;;5095387;28;20052;-87
2021/12/17 03:56:24;;;;;;;20.65;9.45;;;3.20;99.90;;;;;;5094262;28;20051;-87
2021/12/17 03:58:53;;;;;;;46.70;11.50;;;3.20;99.90;;;;;;5095482;28;20054;-87
2021/12/17 04:01:21;;;;;;;26.58;11.27;;;3.20;99.90;;;;;;5095608;28;20044;-86
2021/12/17 04:03:48;;;;;;;17.10;9.90;;;3.10;99.90;;;;;;5094349;28;20090;-86
2021/12/17 04:06:15;;;;;;;32.97;10.25;;;3.20;99.90;;;;;;5094788;28;20051;-87
2021/12/17 04:08:42;;;;;;;44.13;11.02;;;3.10;99.90;;;;;;5094694;28;20054;-86
2021/12/17 04:11:16;;;;;;;48.55;11.70;;;3.10;99.90;;;;;;5095686;28;20044;-86
2021/12/17 04:13:50;;;;;;;45.50;11.10;;;3.00;99.90;;;;;;5094597;28;20090;-87
2021/12/17 04:16:22;;;;;;;50.08;11.45;;;3.00;99.90;;;;;;5094453;28;20062;-87
2021/12/17 04:18:49;;;;;;;29.65;10.02;;;2.90;99.90;;;;;;5095600;28;20048;-87
2021/12/17 04:21:17;;;;;;;24.38;9.55;;;2.90;99.90;;;;;;5095727;28;20040;-86
2021/12/17 04:23:45;;;;;;;18.55;9.02;;;2.80;99.90;;;;;;5094610;28;20044;-87
2021/12/17 04:26:13;;;;;;;25.60;10.75;;;2.80;99.90;;;;;;5094091;28;20054;-86
2021/12/17 04:28:45;;;;;;;25.80;10.45;;;2.90;99.90;;;;;;5095063;28;20048;-86
2021/12/17 04:31:13;;;;;;;36.22;18.85;;;2.90;99.90;;;;;;5104838;28;20138;-86
2021/12/17 04:33:42;;;;;;;29.33;12.55;;;2.90;99.90;;;;;;5115578;28;20062;-86
2021/12/17 04:36:13;;;;;;;28.98;13.60;;;2.90;99.90;;;;;;5097517;28;20070;-87
2021/12/17 04:38:40;;;;;;;33.15;13.82;;;2.90;99.90;;;;;;5102771;28;20043;-86
2021/12/17 04:41:53;;;;;;;27.48;15.15;;;2.80;99.90;;;;;;5117888;28;20047;-87
2021/12/17 04:44:13;;;;;;;22.98;12.40;;;2.80;99.90;;;;;;5104830;28;20055;-86
2021/12/17 04:46:50;;;;;;;22.88;13.73;;;2.80;99.90;;;;;;5097488;28;20055;-86
2021/12/17 04:57:37;;;;;;;20.00;11.73;;;2.80;99.90;;;;;;5114777;28;20044;-86
2021/12/17 05:00:07;;;;;;;18.75;10.82;;;2.80;99.90;;;;;;5096734;28;20077;-86
2021/12/17 05:02:40;;;;;;;19.80;11.40;;;2.80;99.90;;;;;;5096906;28;20414;-86
2021/12/17 05:05:09;;;;;;;;;;;2.80;99.90;;;;;;5115234;28;20457;-86
2021/12/17 05:07:41;;;;;;;16.42;9.20;;;2.80;99.90;;;;;;5096976;28;20355;-87
2021/12/17 05:10:50;;;;;;;21.80;11.55;;;2.80;99.90;;;;;;5096619;28;20054;-86
2021/12/17 05:18:27;;;;;;;17.33;10.90;;;2.80;99.90;;;;;;5114634;28;20050;-86
2021/12/17 05:21:00;;;;;;;22.88;12.13;;;2.90;99.90;;;;;;5096575;28;20592;-86
2021/12/17 05:23:33;;;;;;;33.90;11.35;;;2.90;99.90;;;;;;5114535;28;20138;-86
2021/12/17 05:26:04;;;;;;;15.95;9.73;;;2.90;99.90;;;;;;5096592;28;20471;-86
2021/12/17 05:28:31;;;;;;;19.13;9.85;;;2.90;99.90;;;;;;5096450;28;20055;-86
2021/12/17 05:30:57;;;;;;;14.70;9.93;;;2.90;99.90;;;;;;5096432;28;20052;-86
2021/12/17 05:33:26;;;;;;;20.60;10.05;;;2.90;99.90;;;;;;5096631;28;20052;-86
2021/12/17 05:35:53;;;;;;;12.40;8.88;;;2.90;99.90;;;;;;5114297;28;20127;-86
2021/12/17 05:38:22;;;;;;;15.27;9.73;;;2.90;99.90;;;;;;5114161;28;20501;-86
2021/12/17 05:40:48;;;;;;;13.65;8.35;;;2.90;99.90;;;;;;5096351;28;20050;-86
2021/12/17 05:43:16;;;;;;;16.58;9.15;;;3.00;99.90;;;;;;5096361;28;20047;-86
2021/12/17 05:46:01;;;;;;;15.45;8.85;;;2.90;99.90;;;;;;5096144;28;20120;-86
2021/12/17 05:48:28;;;;;;;13.88;8.57;;;2.90;99.90;;;;;;5095764;28;20047;-86
2021/12/17 05:50:58;;;;;;;15.02;8.77;;;2.90;99.90;;;;;;5096103;28;20049;-86
2021/12/17 05:53:25;;;;;;;14.35;8.77;;;3.00;99.90;;;;;;5098965;28;20102;-86
2021/12/17 05:55:52;;;;;;;15.60;8.63;;;3.00;99.90;;;;;;5099718;28;20043;-87
2021/12/17 05:58:27;;;;;;;16.00;9.30;;;3.00;99.90;;;;;;5096761;28;20058;-87
2021/12/17 06:00:55;;;;;;;16.35;9.52;;;3.00;99.90;;;;;;5095930;28;20069;-86
2021/12/17 06:03:23;;;;;;;16.48;9.75;;;3.00;99.90;;;;;;5113819;28;20054;-86
2021/12/17 06:05:50;;;;;;;20.27;10.18;;;3.00;99.90;;;;;;5112696;28;20043;-87
2021/12/17 06:08:17;;;;;;;16.05;10.27;;;3.00;99.90;;;;;;5095247;28;20058;-86
2021/12/17 06:10:44;;;;;;;17.85;10.55;;;3.00;99.90;;;;;;5095524;28;20156;-87
2021/12/17 06:13:11;;;;;;;13.85;9.73;;;3.10;99.90;;;;;;5095728;28;20066;-87
2021/12/17 06:15:38;;;;;;;17.70;9.88;;;3.10;99.90;;;;;;5096052;28;20122;-87
2021/12/17 06:18:04;;;;;;;15.15;9.40;;;3.10;99.90;;;;;;5095799;28;20048;-88
2021/12/17 06:20:31;;;;;;;17.08;9.40;;;3.10;99.90;;;;;;5113693;28;20048;-87
2021/12/17 06:22:58;;;;;;;13.57;9.00;;;3.10;99.90;;;;;;5113810;28;20050;-87
2021/12/17 06:25:25;;;;;;;21.65;9.75;;;3.10;99.90;;;;;;5095736;28;20052;-87
2021/12/17 06:27:55;;;;;;;15.88;9.30;;;3.20;99.90;;;;;;5113990;28;20392;-87
2021/12/17 06:30:22;;;;;;;14.52;8.80;;;3.20;99.90;;;;;;5095865;28;20083;-87
2021/12/17 06:32:48;;;;;;;18.25;10.48;;;3.20;99.90;;;;;;5113871;28;20488;-87
2021/12/17 06:35:16;;;;;;;21.25;11.98;;;3.20;99.90;;;;;;5095762;28;20044;-87
2021/12/17 06:37:43;;;;;;;20.40;11.10;;;3.10;99.90;;;;;;5096043;28;20051;-87
2021/12/17 06:40:11;;;;;;;12.98;8.73;;;3.00;99.90;;;;;;5096056;28;20047;-87
2021/12/17 06:42:38;;;;;;;15.50;8.48;;;3.10;99.90;;;;;;5096245;28;20043;-87
2021/12/17 06:45:14;;;;;;;11.55;8.50;;;3.10;99.90;;;;;;5095974;28;20055;-87
2021/12/17 06:47:41;;;;;;;12.52;8.77;;;3.20;99.90;;;;;;5096001;28;20047;-87
2021/12/17 07:01:05;;;;;;;20.92;11.45;;;3.10;99.90;;;;;;5113855;28;20043;-88
2021/12/17 07:06:49;;;;;;;15.88;10.90;;;3.20;99.90;;;;;;5113489;28;20054;-87
2021/12/17 07:17:23;;;;;;;11.85;8.55;;;3.30;99.90;;;;;;5116069;28;20047;-87
2021/12/17 07:33:09;;;;;;;10.18;6.90;;;3.30;99.90;;;;;;5117100;28;20050;-86
2021/12/17 07:35:42;;;;;;;21.90;13.88;;;3.40;99.90;;;;;;5099077;28;20055;-87
2021/12/17 07:40:55;;;;;;;11.80;8.70;;;3.30;99.90;;;;;;5116914;28;20054;-87
2021/12/17 07:43:27;;;;;;;11.18;7.85;;;3.30;99.90;;;;;;5098960;28;20043;-87
2021/12/17 07:45:55;;;;;;;10.57;7.63;;;3.30;99.90;;;;;;5098897;28;20402;-87
2021/12/17 07:48:23;;;;;;;10.98;7.82;;;3.20;99.90;;;;;;5116548;28;20044;-88
2021/12/17 07:50:50;;;;;;;11.48;7.85;;;3.30;99.90;;;;;;5098956;28;20082;-87
2021/12/17 07:53:17;;;;;;;10.82;7.47;;;3.30;99.90;;;;;;5098597;28;20050;-86
2021/12/17 07:55:44;;;;;;;13.10;8.23;;;3.40;99.90;;;;;;5098578;28;20167;-87
2021/12/17 07:58:11;;;;;;;12.27;8.88;;;3.40;99.90;;;;;;5116457;28;20043;-86
2021/12/17 08:00:38;;;;;;;10.18;7.82;;;3.40;99.90;;;;;;5098638;28;20051;-87
2021/12/17 08:03:05;;;;;;;13.70;8.77;;;3.40;99.90;;;;;;5115939;28;20047;-86
2021/12/17 08:05:33;;;;;;;11.35;8.20;;;3.50;99.90;;;;;;5097709;28;20083;-87
2021/12/17 08:07:59;;;;;;;11.02;7.50;;;3.50;99.90;;;;;;5098245;28;20543;-87
2021/12/17 08:10:26;;;;;;;12.43;8.00;;;3.50;99.90;;;;;;5115944;28;20525;-87
2021/12/17 08:12:55;;;;;;;12.93;8.95;;;3.50;99.90;;;;;;5115630;28;20043;-87
2021/12/17 08:15:30;;;;;;;13.75;8.70;;;3.50;99.90;;;;;;5097665;28;20050;-87
2021/12/17 08:28:50;;;;;;;10.52;8.02;;;3.60;99.90;;;;;;5134270;27;20057;-87
2021/12/17 08:31:18;;;;;;;9.95;7.82;;;3.70;99.90;;;;;;5135287;27;20131;-87
2021/12/17 08:33:46;;;;;;;13.00;8.52;;;3.80;99.90;;;;;;5136204;27;20122;-86
2021/12/17 08:36:14;;;;;;;12.75;8.85;;;3.90;99.90;;;;;;5117955;27;20083;-87
2021/12/17 08:38:43;;;;;;;12.63;9.13;;;4.00;99.90;;;;;;5117388;27;20577;-87
2021/12/17 08:41:10;;;;;;;15.23;10.23;;;4.10;99.90;;;;;;5117349;27;20055;-87
2021/12/17 08:43:37;;;;;;;11.55;8.20;;;4.20;99.90;;;;;;5117768;27;20039;-87
2021/12/17 08:46:07;;;;;;;16.10;10.63;;;4.20;99.90;;;;;;5117930;27;20051;-87
2021/12/17 08:48:34;;;;;;;92.45;66.40;;;4.20;99.90;;;;;;5117162;27;20053;-87
2021/12/17 08:51:01;;;;;;;16.17;10.90;;;4.10;99.90;;;;;;5117796;27;20078;-87
2021/12/17 08:53:28;;;;;;;16.67;10.13;;;4.20;99.90;;;;;;5135514;27;20165;-87
2021/12/17 08:55:55;;;;;;;19.33;12.40;;;4.20;99.90;;;;;;5117280;27;20047;-87
2021/12/17 08:58:22;;;;;;;15.38;11.35;;;4.20;99.90;;;;;;5135538;27;20054;-87
2021/12/17 09:00:52;;;;;;;16.80;9.95;;;4.30;99.90;;;;;;5118301;27;20142;-87
2021/12/17 09:03:19;;;;;;;14.85;9.95;;;4.40;99.90;;;;;;5117759;27;20100;-87
2021/12/17 09:05:47;;;;;;;12.02;9.15;;;4.50;99.90;;;;;;5135501;27;20044;-87
2021/12/17 09:08:14;;;;;;;15.60;9.55;;;4.50;99.90;;;;;;5135137;27;20471;-87
2021/12/17 09:10:44;;;;;;;15.00;9.85;;;4.60;99.90;;;;;;5117363;27;20055;-87
2021/12/17 09:13:11;;;;;;;12.10;9.77;;;4.60;99.90;;;;;;5133940;27;20054;-87
2021/12/17 09:15:39;;;;;;;11.23;9.55;;;4.60;99.90;;;;;;5117311;27;20057;-86
2021/12/17 09:18:05;;;;;;;11.32;9.82;;;4.70;99.90;;;;;;5135361;27;20047;-87
2021/12/17 09:20:33;;;;;;;14.80;10.10;;;4.70;99.90;;;;;;5116982;27;20062;-87
2021/12/17 09:22:59;;;;;;;11.98;10.40;;;4.80;99.90;;;;;;5117085;27;20414;-87
2021/12/17 09:25:27;;;;;;;12.10;9.63;;;4.90;99.90;;;;;;5117169;27;20081;-87
2021/12/17 09:27:53;;;;;;;10.85;9.73;;;5.00;99.90;;;;;;5116773;27;20085;-87
2021/12/17 09:30:21;;;;;;;13.82;10.43;;;5.10;99.90;;;;;;5115409;27;20060;-87
2021/12/17 09:32:47;;;;;;;18.30;11.40;;;5.10;99.90;;;;;;5105133;27;20054;-87
2021/12/17 09:35:15;;;;;;;17.48;12.13;;;5.20;99.90;;;;;;5125542;27;20047;-87
2021/12/17 09:37:41;;;;;;;20.50;14.32;;;5.30;99.90;;;;;;5107036;27;20419;-87
2021/12/17 09:40:11;;;;;;;15.90;11.35;;;5.40;99.90;;;;;;5106727;28;20074;-87
2021/12/17 09:42:40;;;;;;;17.40;12.70;;;5.50;99.90;;;;;;5115553;28;20499;-87
2021/12/17 09:45:08;;;;;;;13.90;10.02;;;5.60;99.90;;;;;;5114091;28;20058;-87
2021/12/17 09:47:35;;;;;;;18.67;13.18;;;5.70;99.90;;;;;;5121247;27;20043;-87
2021/12/17 09:50:03;;;;;;;19.55;14.18;;;5.80;99.90;;;;;;5116385;27;20051;-87
2021/12/17 09:52:29;;;;;;;10.15;9.10;;;5.90;99.90;;;;;;5116700;27;20049;-87
2021/12/17 09:54:57;;;;;;;10.13;8.82;;;6.00;99.90;;;;;;5107535;28;20146;-87
2021/12/17 09:57:25;;;;;;;11.85;10.18;;;6.20;99.90;;;;;;5097814;28;20082;-87
2021/12/17 09:59:56;;;;;;;11.13;9.15;;;6.30;99.90;;;;;;5113590;28;20051;-87
2021/12/17 10:02:22;;;;;;;8.95;7.90;;;6.50;99.90;;;;;;5095718;28;20130;-87
2021/12/17 10:04:54;;;;;;;7.13;6.47;;;6.70;99.90;;;;;;5114890;27;20053;-87
2021/12/17 10:07:22;;;;;;;8.13;7.05;;;6.90;99.90;;;;;;5111989;28;20384;-88
2021/12/17 10:09:56;;;;;;;7.55;6.57;;;7.10;99.90;;;;;;5095632;28;20073;-87
2021/12/17 10:12:26;;;;;;;9.57;7.25;;;7.20;99.90;;;;;;5113305;28;20548;-88
2021/12/17 10:15:13;;;;;;;7.78;6.97;;;7.40;99.90;;;;;;5109776;27;20047;-88
2021/12/17 10:17:52;;;;;;;8.10;7.25;;;7.40;99.90;;;;;;5116213;28;20055;-88
2021/12/17 10:20:20;;;;;;;7.80;7.00;;;7.40;99.90;;;;;;5115987;28;20043;-87
2021/12/17 10:22:58;;;;;;;9.05;7.07;;;7.50;99.90;;;;;;5100844;28;20134;-87
2021/12/17 10:25:26;;;;;;;7.55;6.85;;;7.60;99.90;;;;;;5113569;28;20403;-87
2021/12/17 10:28:03;;;;;;;9.13;7.60;;;7.50;99.90;;;;;;5113778;28;20047;-87
2021/12/17 10:30:33;;;;;;;8.18;7.22;;;7.30;99.90;;;;;;5113438;28;20059;-87
2021/12/17 10:33:02;;;;;;;12.85;10.15;;;7.40;99.90;;;;;;5095749;28;20414;-87
2021/12/17 10:35:31;;;;;;;12.93;9.10;;;7.20;99.90;;;;;;5095473;28;20083;-88
2021/12/17 10:38:03;;;;;;;12.50;8.65;;;7.10;99.90;;;;;;5095425;28;20048;-88
2021/12/17 10:40:34;;;;;;;8.80;7.90;;;7.20;99.90;;;;;;5094762;28;20056;-88
2021/12/17 10:43:22;;;;;;;106.50;73.22;;;7.30;99.90;;;;;;5094707;28;20044;-87
2021/12/17 10:46:28;;;;;;;33.53;23.52;;;7.30;99.90;;;;;;5096747;28;20051;-87
2021/12/17 10:54:16;;;;;;;12.15;8.63;;;7.50;99.90;;;;;;5117558;28;20406;-87
2021/12/17 10:56:52;;;;;;;11.68;8.93;;;7.70;99.90;;;;;;5119380;28;20048;-87
2021/12/17 10:59:20;;;;;;;10.35;8.75;;;7.80;99.90;;;;;;5117645;28;20130;-88
2021/12/17 11:02:01;;;;;;;10.40;7.80;;;7.80;99.90;;;;;;5117579;28;20479;-88
2021/12/17 11:04:33;;;;;;;10.52;8.68;;;7.90;99.90;;;;;;5117340;28;20055;-87
2021/12/17 11:07:01;;;;;;;10.52;8.70;;;7.90;99.90;;;;;;5115843;28;20051;-87
2021/12/17 11:09:37;;;;;;;11.50;8.73;;;8.00;99.90;;;;;;5115729;28;20047;-87
2021/12/17 11:12:12;;;;;;;11.68;9.27;;;7.90;99.90;;;;;;5115346;28;20047;-88
2021/12/17 11:14:43;;;;;;;13.38;8.95;;;7.80;99.90;;;;;;5116129;28;20050;-88
2021/12/17 11:17:14;;;;;;;13.45;9.20;;;7.80;99.90;;;;;;5119630;28;20139;-87
2021/12/17 11:20:08;;;;;;;9.18;7.90;;;7.90;99.90;;;;;;5117027;28;20050;-87
2021/12/17 11:22:37;;;;;;;9.02;7.93;;;8.10;99.90;;;;;;5114471;28;20671;-87
2021/12/17 11:25:04;;;;;;;11.07;8.70;;;8.30;99.90;;;;;;5115139;28;20100;-87
2021/12/17 11:27:32;;;;;;;14.82;10.70;;;8.40;99.90;;;;;;5114855;28;20050;-87
2021/12/17 11:29:59;;;;;;;11.60;10.32;;;8.50;99.90;;;;;;5097224;28;20073;-87
2021/12/17 11:32:26;;;;;;;12.32;9.27;;;8.50;99.90;;;;;;5096835;28;20205;-87
2021/12/17 11:34:54;;;;;;;13.45;10.10;;;8.50;99.90;;;;;;5114580;28;20047;-88
2021/12/17 11:37:21;;;;;;;12.25;10.25;;;8.50;99.90;;;;;;5098810;28;20048;-87
2021/12/17 11:39:54;;;;;;;12.73;9.68;;;8.50;99.90;;;;;;5116633;28;20051;-87
2021/12/17 11:43:02;;;;;;;16.80;10.50;;;8.30;99.90;;;;;;5115403;28;20047;-87
2021/12/17 11:45:29;;;;;;;22.38;12.60;;;8.50;99.90;;;;;;5116400;28;20058;-87
2021/12/17 11:48:11;;;;;;;19.75;11.50;;;8.60;99.90;;;;;;5116725;28;20051;-87
2021/12/17 11:50:42;;;;;;;14.07;10.65;;;8.60;99.90;;;;;;5098538;28;20491;-87
2021/12/17 11:53:54;;;;;;;13.95;10.73;;;8.80;99.90;;;;;;5116490;28;20075;-87
2021/12/17 11:56:33;;;;;;;18.35;11.27;;;8.80;99.90;;;;;;5116421;28;20063;-87
2021/12/17 11:59:00;;;;;;;14.15;9.90;;;8.70;99.90;;;;;;5098085;28;20419;-86
2021/12/17 12:02:00;;;;;;;13.15;9.27;;;8.60;99.90;;;;;;5115218;28;20085;-87
2021/12/17 12:04:33;;;;;;;14.02;10.05;;;8.70;99.90;;;;;;5115456;28;20104;-87
2021/12/17 12:07:05;;;;;;;17.67;11.27;;;8.90;99.90;;;;;;5098372;28;20051;-87
2021/12/17 12:09:57;;;;;;;15.00;10.68;;;9.10;99.90;;;;;;5116632;28;20039;-88
2021/12/17 12:12:34;;;;;;;16.92;10.40;;;9.20;99.90;;;;;;5121486;28;20510;-88
2021/12/17 12:15:16;;;;;;;16.08;11.20;;;9.30;99.90;;;;;;5098628;28;20046;-88
2021/12/17 12:18:03;;;;;;;15.43;11.40;;;9.50;99.90;;;;;;5098129;28;20051;-87
2021/12/17 12:20:50;;;;;;;14.98;10.82;;;9.50;99.90;;;;;;5098059;28;20055;-87
2021/12/17 12:23:17;;;;;;;17.00;11.43;;;9.40;99.90;;;;;;5097958;28;20082;-88
2021/12/17 12:26:05;;;;;;;24.38;11.77;;;9.40;99.90;;;;;;5097835;28;20130;-87
2021/12/17 12:28:48;;;;;;;15.30;10.52;;;9.10;99.90;;;;;;5087449;28;20131;-87
2021/12/17 12:31:24;;;;;;;15.23;10.20;;;9.00;99.90;;;;;;5094144;28;20504;-87
2021/12/17 12:34:06;;;;;;;17.55;10.25;;;8.80;99.90;;;;;;5095049;28;20561;-87
2021/12/17 12:37:00;;;;;;;16.90;9.75;;;8.80;99.90;;;;;;5094173;28;20080;-87
2021/12/17 12:39:29;;;;;;;19.75;10.15;;;8.70;99.90;;;;;;5095023;28;20130;-88
2021/12/17 12:42:28;;;;;;;12.90;9.48;;;8.80;99.90;;;;;;5094230;28;20043;-88
2021/12/17 12:44:55;;;;;;;11.90;9.05;;;8.80;99.90;;;;;;5111318;28;20040;-88
2021/12/17 12:47:31;;;;;;;17.08;9.32;;;8.70;99.90;;;;;;5111195;28;20083;-86
2021/12/17 12:50:06;;;;;;;14.30;8.88;;;8.60;99.90;;;;;;5095108;28;20108;-87
2021/12/17 12:52:39;;;;;;;16.73;8.95;;;8.40;99.90;;;;;;5111040;28;20052;-88
2021/12/17 12:55:23;;;;;;;15.10;9.43;;;8.40;99.90;;;;;;5110542;28;20052;-87
2021/12/17 12:57:50;;;;;;;;;;;8.50;99.90;;;;;;5095504;28;20062;-87
2021/12/17 13:00:30;;;;;;;16.40;8.70;;;8.20;99.90;;;;;;5110646;28;19920;-87
2021/12/17 13:03:13;;;;;;;16.05;9.45;;;8.40;99.90;;;;;;5095011;28;20044;-87
2021/12/17 13:05:42;;;;;;;25.95;10.77;;;8.50;99.90;;;;;;5110652;28;20051;-87
2021/12/17 13:08:14;;;;;;;22.40;11.43;;;8.20;99.90;;;;;;5093681;28;20480;-87
2021/12/17 13:10:49;;;;;;;27.83;14.68;;;8.00;99.90;;;;;;5094682;28;20130;-87
2021/12/17 13:21:21;;;;;;;19.08;11.38;;;7.60;99.90;;;;;;5094598;28;20044;-87
2021/12/17 13:23:55;;;;;;;33.33;21.92;;;7.70;99.90;;;;;;5094230;28;20048;-87
2021/12/17 13:26:25;;;;;;;13.50;9.85;;;7.70;99.90;;;;;;5103327;28;20063;-87
2021/12/17 13:29:00;;;;;;;16.55;10.25;;;7.60;99.90;;;;;;5114909;28;20046;-87
2021/12/17 13:31:48;;;;;;;18.23;11.07;;;7.40;99.90;;;;;;5105885;28;20047;-87
2021/12/17 13:34:15;;;;;;;16.83;9.48;;;7.20;99.90;;;;;;5096566;28;20050;-87
2021/12/17 13:37:00;;;;;;;14.43;9.57;;;7.10;99.90;;;;;;5114477;28;20047;-87
2021/12/17 13:39:31;;;;;;;34.47;20.60;;;7.10;99.90;;;;;;5113433;28;20053;-87
2021/12/17 13:41:59;;;;;;;23.38;14.38;;;7.00;99.90;;;;;;5114877;28;20506;-87
2021/12/17 13:44:35;;;;;;;19.85;11.75;;;7.00;99.90;;;;;;5114568;28;20047;-88
2021/12/17 13:47:18;;;;;;;14.68;10.50;;;7.10;99.90;;;;;;5096631;28;20051;-86
2021/12/17 13:49:58;;;;;;;19.13;9.55;;;7.10;99.90;;;;;;5096389;28;20183;-87
2021/12/17 13:52:29;;;;;;;13.05;8.52;;;7.20;99.90;;;;;;5113351;28;20071;-87
2021/12/17 13:54:58;;;;;;;17.05;8.98;;;7.10;99.90;;;;;;5114493;28;20103;-87
2021/12/17 13:57:28;;;;;;;33.40;9.43;;;7.00;99.90;;;;;;5112993;28;20043;-87
2021/12/17 14:00:08;;;;;;;22.92;9.80;;;6.90;99.90;;;;;;5113812;28;20055;-87
2021/12/17 14:02:36;;;;;;;23.65;11.82;;;6.80;99.90;;;;;;5113328;28;20130;-87
2021/12/17 14:05:20;;;;;;;15.05;9.07;;;6.80;99.90;;;;;;5096024;28;20051;-87
2021/12/17 14:07:51;;;;;;;16.00;8.45;;;6.90;99.90;;;;;;5113315;28;20051;-87
2021/12/17 14:10:24;;;;;;;16.00;8.95;;;6.80;99.90;;;;;;5111883;28;20502;-87
2021/12/17 14:12:51;;;;;;;15.32;8.00;;;6.70;99.90;;;;;;5113178;28;20475;-87
2021/12/17 14:15:41;;;;;;;15.00;8.82;;;6.60;99.90;;;;;;5114970;28;20051;-87
2021/12/17 14:18:10;;;;;;;16.80;8.82;;;6.50;99.90;;;;;;5114391;28;20051;-87
2021/12/17 14:20:40;;;;;;;16.83;8.45;;;6.30;99.90;;;;;;5112638;28;20450;-87
2021/12/17 14:23:09;;;;;;;14.93;8.13;;;6.20;99.90;;;;;;5096148;28;20065;-87
2021/12/17 14:25:39;;;;;;;14.25;8.02;;;6.00;99.90;;;;;;5114255;28;20051;-87
2021/12/17 14:28:25;;;;;;;15.68;7.95;;;5.90;99.90;;;;;;5117136;28;20503;-87
2021/12/17 14:31:10;;;;;;;16.08;8.45;;;5.80;99.90;;;;;;5116812;28;20062;-87
2021/12/17 14:33:49;;;;;;;12.38;8.13;;;5.70;99.90;;;;;;5117047;28;20050;-87
2021/12/17 14:36:18;;;;;;;13.13;7.22;;;5.60;99.90;;;;;;5118185;27;20054;-88
2021/12/17 14:38:51;;;;;;;23.67;7.57;;;5.50;99.90;;;;;;5121177;27;20053;-87
2021/12/17 14:41:34;;;;;;;12.65;7.80;;;5.40;99.90;;;;;;5134530;27;20043;-86
2021/12/17 14:44:18;;;;;;;15.98;7.43;;;5.30;99.90;;;;;;5125704;27;20129;-87
2021/12/17 14:58:10;;;;;;;21.30;10.32;;;4.70;99.90;;;;;;5138435;27;20043;-86
2021/12/17 15:00:53;;;;;;;19.88;9.18;;;4.60;99.90;;;;;;5137641;27;20535;-87
2021/12/17 15:03:29;;;;;;;13.90;7.88;;;4.40;99.90;;;;;;5137972;27;20479;-88
2021/12/17 15:06:01;;;;;;;14.00;7.45;;;4.30;99.90;;;;;;5120345;27;20043;-87
2021/12/17 15:08:29;;;;;;;12.60;6.63;;;4.00;99.90;;;;;;5119619;27;20104;-87
2021/12/17 15:10:57;;;;;;;16.25;7.25;;;3.90;99.90;;;;;;5119947;27;20134;-88
2021/12/17 15:13:24;;;;;;;13.38;7.57;;;3.90;99.90;;;;;;5138089;27;20069;-88
2021/12/17 15:15:52;;;;;;;14.35;7.78;;;3.80;99.90;;;;;;5120058;27;20057;-87
2021/12/17 15:18:19;;;;;;;16.15;9.40;;;3.70;99.90;;;;;;5119878;27;20043;-87
2021/12/17 15:20:51;;;;;;;13.20;8.00;;;3.60;99.90;;;;;;5136860;27;20043;-87
2021/12/17 15:23:20;;;;;;;17.73;8.27;;;3.60;99.90;;;;;;5118771;27;20053;-88
2021/12/17 15:25:48;;;;;;;13.20;8.23;;;3.60;99.90;;;;;;5119554;27;20049;-87
2021/12/17 15:28:17;;;;;;;24.20;10.40;;;3.50;99.90;;;;;;5119788;27;20470;-88
2021/12/17 15:30:47;;;;;;;23.95;11.50;;;3.40;99.90;;;;;;5119421;27;20070;-88
2021/12/17 15:33:15;;;;;;;23.38;11.18;;;3.40;99.90;;;;;;5137882;27;20051;-88
2021/12/17 15:35:43;;;;;;;18.38;9.82;;;3.30;99.90;;;;;;5121035;27;20418;-88
2021/12/17 15:38:11;;;;;;;18.80;10.48;;;3.20;99.90;;;;;;5119123;27;20043;-87
2021/12/17 15:40:40;;;;;;;18.27;9.15;;;3.10;99.90;;;;;;5118530;27;20460;-87
2021/12/17 15:43:08;;;;;;;29.80;15.15;;;3.00;99.90;;;;;;5119487;27;20406;-87
2021/12/17 15:45:38;;;;;;;32.33;15.27;;;2.90;99.90;;;;;;5119557;27;20057;-87
2021/12/17 15:48:06;;;;;;;24.48;11.27;;;2.90;99.90;;;;;;5111650;28;20044;-87
2021/12/17 15:50:53;;;;;;;25.67;11.68;;;2.80;99.90;;;;;;5102367;28;20062;-87
2021/12/17 15:53:20;;;;;;;31.02;17.85;;;2.80;99.90;;;;;;5098687;28;20514;-87
2021/12/17 15:55:47;;;;;;;23.70;11.98;;;2.70;99.90;;;;;;5106696;28;20091;-88
2021/12/17 15:58:14;;;;;;;24.15;11.48;;;2.70;99.90;;;;;;5127729;28;20139;-88
2021/12/17 16:00:46;;;;;;;17.00;9.65;;;2.60;99.90;;;;;;5099576;28;20048;-87